Waterloo, Canada
Current Conditions -  °F | °C
As of 12:57 PM on Saturday 25 Oct 2014 (Local Time) from CYKF Reporting Station
Haze Haze  
Wind Chill: 55°   Ceiling: 1400
Heat Index: 55°   Visibility: 5mi
Dew Point: 50°   Wind: 20mph
Humidity: 82%   Direction: 270°W
Pressure: 29.67"   Gusts: 29mph
Location:  43.46°N, 80.52°W
Report Text: CYKF 251657Z AUTO 27017G25KT 5SM HZ OVC014 13/10 A2967 RMK SLP051 DENSITY ALT 1200FT
Loading
Personal Weather Stations






























Interactive Weather Map
Tropical Storm Tracking
New forecast layout! Learn more

10-Day Weather Forecast

Advertisements
Track Severe Weather on mobile